Time,TemperatureF,DewpointF,PressureIn,WindDirection,WindDirectionDegrees,WindSpeedMPH,WindSpeedGustMPH,Humidity,HourlyPrecipIn,Conditions,Clouds,dailyrainin,SolarRadiationWatts/m^2,SoftwareType,DateUTC
2013-09-29 00:03:00,-999.0,-99.9,-100.00,NNW,338,3.0,3.0,-999,-99.99,,,-99.99,0.000000,,2013-09-29 04:03:00,
2013-09-29 01:22:00,47.0,46.0,-100.00,NW,316,2.0,4.0,96,0.00,,,0.00,1.000000,,2013-09-29 05:22:00,
2013-09-29 02:52:00,45.0,44.0,-100.00,NNW,328,2.0,4.0,97,-99.99,,,0.00,1.000000,,2013-09-29 06:52:00,
2013-09-29 03:02:00,45.0,44.0,-100.00,NNW,328,2.0,4.0,97,-99.99,,,0.00,1.000000,,2013-09-29 07:02:00,
2013-09-29 03:22:00,45.0,44.0,-100.00,NNW,328,2.0,4.0,97,-99.99,,,0.00,1.000000,,2013-09-29 07:22:00,
2013-09-29 03:52:00,47.0,46.0,-100.00,North,360,3.0,5.0,97,0.00,,,0.00,1.000000,,2013-09-29 07:52:00,
2013-09-29 04:02:00,47.0,46.0,-100.00,North,360,3.0,5.0,97,0.00,,,0.00,1.000000,,2013-09-29 08:02:00,
2013-09-29 04:12:00,47.0,46.0,-100.00,North,360,3.0,5.0,97,0.00,,,0.00,1.000000,,2013-09-29 08:12:00,
2013-09-29 04:22:00,47.0,46.0,-100.00,North,360,3.0,5.0,97,0.00,,,0.00,1.000000,,2013-09-29 08:22:00,
2013-09-29 04:52:00,49.0,48.0,-100.00,North,2,3.0,4.0,97,0.00,,,0.00,0.000000,,2013-09-29 08:52:00,
2013-09-29 05:02:00,49.0,48.0,-100.00,North,2,3.0,4.0,97,0.00,,,0.00,0.000000,,2013-09-29 09:02:00,
2013-09-29 05:11:00,49.0,48.0,-100.00,North,2,3.0,4.0,97,0.00,,,0.00,0.000000,,2013-09-29 09:11:00,
2013-09-29 05:22:00,49.0,48.0,-100.00,North,2,3.0,4.0,97,0.00,,,0.00,0.000000,,2013-09-29 09:22:00,
2013-09-29 05:54:00,49.0,48.0,-100.00,North,11,4.0,6.0,98,0.00,,,0.00,1.000000,,2013-09-29 09:54:00,
2013-09-29 06:03:00,49.0,48.0,-100.00,North,11,4.0,6.0,98,0.00,,,0.00,1.000000,,2013-09-29 10:03:00,
2013-09-29 06:12:00,49.0,48.0,-100.00,North,11,4.0,6.0,98,0.00,,,0.00,1.000000,,2013-09-29 10:12:00,
2013-09-29 06:23:00,49.0,48.0,-100.00,North,11,4.0,6.0,98,0.00,,,0.00,1.000000,,2013-09-29 10:23:00,
2013-09-29 06:53:00,48.0,47.0,-100.00,North,8,3.0,6.0,98,0.00,,,0.00,1.000000,,2013-09-29 10:53:00,
2013-09-29 07:03:00,48.0,47.0,-100.00,North,8,3.0,6.0,98,0.00,,,0.00,1.000000,,2013-09-29 11:03:00,
2013-09-29 07:12:00,48.0,47.0,-100.00,North,8,3.0,6.0,98,0.00,,,0.00,1.000000,,2013-09-29 11:12:00,
2013-09-29 07:22:00,48.0,47.0,-100.00,North,8,3.0,6.0,98,0.00,,,0.00,1.000000,,2013-09-29 11:22:00,
2013-09-29 07:52:00,49.0,48.0,-100.00,NNE,19,4.0,6.0,97,0.00,,,0.00,19.000000,,2013-09-29 11:52:00,
2013-09-29 08:01:00,49.0,48.0,-100.00,NNE,19,4.0,6.0,97,0.00,,,0.00,19.000000,,2013-09-29 12:01:00,
2013-09-29 08:12:00,49.0,48.0,-100.00,NNE,19,4.0,6.0,97,0.00,,,0.00,19.000000,,2013-09-29 12:12:00,
2013-09-29 08:21:00,49.0,48.0,-100.00,NNE,19,4.0,6.0,97,0.00,,,0.00,19.000000,,2013-09-29 12:21:00,
2013-09-29 08:52:00,51.0,50.0,-100.00,NNE,26,6.0,8.0,97,0.00,,,0.00,99.000000,,2013-09-29 12:52:00,
2013-09-29 09:02:00,51.0,50.0,-100.00,NNE,26,6.0,8.0,97,0.00,,,0.00,99.000000,,2013-09-29 13:02:00,
2013-09-29 09:11:00,51.0,50.0,-100.00,NNE,26,6.0,8.0,97,0.00,,,0.00,99.000000,,2013-09-29 13:11:00,
2013-09-29 09:22:00,51.0,50.0,-100.00,NNE,26,6.0,8.0,97,0.00,,,0.00,99.000000,,2013-09-29 13:22:00,
2013-09-29 09:53:00,57.0,56.0,-100.00,NNE,21,6.0,11.0,96,0.00,,,0.00,212.000000,,2013-09-29 13:53:00,
2013-09-29 10:02:00,57.0,56.0,-100.00,NNE,21,6.0,11.0,96,0.00,,,0.00,212.000000,,2013-09-29 14:02:00,
2013-09-29 10:12:00,57.0,56.0,-100.00,NNE,21,6.0,11.0,96,0.00,,,0.00,212.000000,,2013-09-29 14:12:00,
2013-09-29 10:22:00,57.0,56.0,-100.00,NNE,21,6.0,11.0,96,0.00,,,0.00,212.000000,,2013-09-29 14:22:00,
2013-09-29 11:12:00,64.0,56.0,-100.00,NE,45,6.0,12.0,74,0.00,,,0.00,479.000000,,2013-09-29 15:12:00,
2013-09-29 11:22:00,64.0,56.0,-100.00,NE,45,6.0,12.0,74,0.00,,,0.00,479.000000,,2013-09-29 15:22:00,
2013-09-29 12:24:00,66.0,51.0,-100.00,East,81,7.0,14.0,59,0.00,,,0.00,658.000000,,2013-09-29 16:24:00,
2013-09-29 12:54:00,67.0,52.0,-100.00,East,101,8.0,14.0,59,0.00,,,0.00,738.000000,,2013-09-29 16:54:00,
2013-09-29 13:03:00,67.0,52.0,-100.00,East,101,8.0,14.0,59,0.00,,,0.00,738.000000,,2013-09-29 17:03:00,
2013-09-29 13:13:00,67.0,52.0,-100.00,East,101,8.0,14.0,59,0.00,,,0.00,738.000000,,2013-09-29 17:13:00,
2013-09-29 13:24:00,67.0,52.0,-100.00,East,101,8.0,14.0,59,0.00,,,0.00,738.000000,,2013-09-29 17:24:00,
2013-09-29 13:52:00,67.0,53.0,-100.00,ESE,113,7.0,14.0,60,0.00,,,0.00,723.000000,,2013-09-29 17:52:00,
2013-09-29 14:02:00,67.0,53.0,-100.00,ESE,113,7.0,14.0,60,0.00,,,0.00,723.000000,,2013-09-29 18:02:00,
2013-09-29 14:13:00,67.0,53.0,-100.00,ESE,113,7.0,14.0,60,0.00,,,0.00,723.000000,,2013-09-29 18:13:00,
2013-09-29 14:22:00,67.0,53.0,-100.00,ESE,113,7.0,14.0,60,0.00,,,0.00,723.000000,,2013-09-29 18:22:00,
2013-09-29 14:52:00,65.0,52.0,-100.00,SE,124,8.0,13.0,62,0.00,,,0.00,715.000000,,2013-09-29 18:52:00,
2013-09-29 15:02:00,65.0,52.0,-100.00,SE,124,8.0,13.0,62,0.00,,,0.00,715.000000,,2013-09-29 19:02:00,
2013-09-29 15:12:00,65.0,52.0,-100.00,SE,124,8.0,13.0,62,0.00,,,0.00,715.000000,,2013-09-29 19:12:00,
2013-09-29 15:22:00,65.0,52.0,-100.00,SE,124,8.0,13.0,62,0.00,,,0.00,715.000000,,2013-09-29 19:22:00,
2013-09-29 15:52:00,68.0,52.0,-100.00,ESE,109,5.0,12.0,57,0.00,,,0.00,634.000000,,2013-09-29 19:52:00,
2013-09-29 16:02:00,68.0,52.0,-100.00,ESE,109,5.0,12.0,57,0.00,,,0.00,634.000000,,2013-09-29 20:02:00,
2013-09-29 16:12:00,68.0,52.0,-100.00,ESE,109,5.0,12.0,57,0.00,,,0.00,634.000000,,2013-09-29 20:12:00,
2013-09-29 16:22:00,68.0,52.0,-100.00,ESE,109,5.0,12.0,57,0.00,,,0.00,634.000000,,2013-09-29 20:22:00,
2013-09-29 16:52:00,67.0,52.0,-100.00,East,90,5.0,11.0,58,0.00,,,0.00,503.000000,,2013-09-29 20:52:00,
2013-09-29 17:02:00,67.0,52.0,-100.00,East,90,5.0,11.0,58,0.00,,,0.00,503.000000,,2013-09-29 21:02:00,
2013-09-29 17:12:00,67.0,52.0,-100.00,East,90,5.0,11.0,58,0.00,,,0.00,503.000000,,2013-09-29 21:12:00,
2013-09-29 17:22:00,67.0,52.0,-100.00,East,90,5.0,11.0,58,0.00,,,0.00,503.000000,,2013-09-29 21:22:00,
2013-09-29 17:55:00,66.0,51.0,-100.00,East,98,5.0,9.0,59,0.00,,,-99.99,314.000000,,2013-09-29 21:55:00,
2013-09-29 18:04:00,66.0,51.0,-100.00,East,98,5.0,9.0,59,0.00,,,-99.99,314.000000,,2013-09-29 22:04:00,
2013-09-29 18:14:00,66.0,51.0,-100.00,East,98,5.0,9.0,59,0.00,,,-99.99,314.000000,,2013-09-29 22:14:00,
2013-09-29 18:24:00,66.0,51.0,-100.00,East,98,5.0,9.0,59,0.00,,,-99.99,314.000000,,2013-09-29 22:24:00,
2013-09-29 18:53:00,59.0,48.0,-100.00,ENE,74,2.0,8.0,68,0.00,,,0.00,85.000000,,2013-09-29 22:53:00,
2013-09-29 19:03:00,59.0,48.0,-100.00,ENE,74,2.0,8.0,68,0.00,,,0.00,85.000000,,2013-09-29 23:03:00,
2013-09-29 19:12:00,59.0,48.0,-100.00,ENE,74,2.0,8.0,68,0.00,,,0.00,85.000000,,2013-09-29 23:12:00,
2013-09-29 19:23:00,59.0,48.0,-100.00,ENE,74,2.0,8.0,68,0.00,,,0.00,85.000000,,2013-09-29 23:23:00,
2013-09-29 19:53:00,52.0,49.0,-100.00,North,357,3.0,3.0,91,0.00,,,0.00,3.000000,,2013-09-29 23:53:00,
2013-09-29 20:02:00,52.0,49.0,-100.00,North,357,3.0,3.0,91,0.00,,,0.00,3.000000,,2013-09-30 00:02:00,
2013-09-29 20:12:00,52.0,49.0,-100.00,North,357,3.0,3.0,91,0.00,,,0.00,3.000000,,2013-09-30 00:12:00,
2013-09-29 21:52:00,58.0,55.0,-100.00,NE,41,4.0,7.0,90,-99.99,,,0.00,0.000000,,2013-09-30 01:52:00,
2013-09-29 22:02:00,58.0,55.0,-100.00,NE,41,4.0,7.0,90,-99.99,,,0.00,0.000000,,2013-09-30 02:02:00,
2013-09-29 22:12:00,58.0,55.0,-100.00,NE,41,4.0,7.0,90,-99.99,,,0.00,0.000000,,2013-09-30 02:12:00,
2013-09-29 22:22:00,58.0,55.0,-100.00,NE,41,4.0,7.0,90,-99.99,,,0.00,0.000000,,2013-09-30 02:22:00,
2013-09-29 22:52:00,57.0,54.0,-100.00,North,5,4.0,7.0,90,0.00,,,0.00,0.000000,,2013-09-30 02:52:00,
2013-09-29 23:02:00,57.0,54.0,-100.00,North,5,4.0,7.0,90,0.00,,,0.00,0.000000,,2013-09-30 03:02:00,
2013-09-29 23:12:00,57.0,54.0,-100.00,North,5,4.0,7.0,90,0.00,,,0.00,0.000000,,2013-09-30 03:12:00,
2013-09-29 23:22:00,57.0,54.0,-100.00,North,5,4.0,7.0,90,0.00,,,0.00,0.000000,,2013-09-30 03:22:00,
2013-09-29 23:25:00,57.0,54.0,-100.00,NNE,17,4.0,8.0,90,0.00,,,0.00,1.000000,,2013-09-30 03:25:00,
2013-09-29 23:55:00,57.0,54.0,-100.00,NNE,17,4.0,8.0,90,0.00,,,0.00,1.000000,,2013-09-30 03:55:00,